sensor_id;sensor_type;location;lat;lon;timestamp;P1;durP1;ratioP1;P2;durP2;ratioP2
462;SDS011;218;51.902;9.542;2023-05-10T00:01:36;4.73;;;4.37;;
462;SDS011;218;51.902;9.542;2023-05-10T00:04:03;4.50;;;4.10;;
462;SDS011;218;51.902;9.542;2023-05-10T00:06:30;4.87;;;4.47;;
462;SDS011;218;51.902;9.542;2023-05-10T00:08:57;5.20;;;4.80;;
462;SDS011;218;51.902;9.542;2023-05-10T00:11:24;4.60;;;4.30;;
462;SDS011;218;51.902;9.542;2023-05-10T00:13:52;5.80;;;5.30;;
462;SDS011;218;51.902;9.542;2023-05-10T00:16:19;4.47;;;4.17;;
462;SDS011;218;51.902;9.542;2023-05-10T00:18:46;4.20;;;3.90;;
462;SDS011;218;51.902;9.542;2023-05-10T00:21:13;4.83;;;4.43;;
462;SDS011;218;51.902;9.542;2023-05-10T00:23:40;4.97;;;4.60;;
462;SDS011;218;51.902;9.542;2023-05-10T00:26:07;5.03;;;4.70;;
462;SDS011;218;51.902;9.542;2023-05-10T00:28:34;4.37;;;4.07;;
462;SDS011;218;51.902;9.542;2023-05-10T00:31:03;5.23;;;4.10;;
462;SDS011;218;51.902;9.542;2023-05-10T00:33:30;4.77;;;4.47;;
462;SDS011;218;51.902;9.542;2023-05-10T00:35:57;4.73;;;4.43;;
462;SDS011;218;51.902;9.542;2023-05-10T00:38:24;4.73;;;4.33;;
462;SDS011;218;51.902;9.542;2023-05-10T00:40:51;4.90;;;4.60;;
462;SDS011;218;51.902;9.542;2023-05-10T00:43:18;5.00;;;4.60;;
462;SDS011;218;51.902;9.542;2023-05-10T00:45:45;5.40;;;5.00;;
462;SDS011;218;51.902;9.542;2023-05-10T00:48:14;4.82;;;4.50;;
462;SDS011;218;51.902;9.542;2023-05-10T00:50:41;4.97;;;4.67;;
462;SDS011;218;51.902;9.542;2023-05-10T00:53:08;4.63;;;4.13;;
462;SDS011;218;51.902;9.542;2023-05-10T00:55:35;5.80;;;4.33;;
462;SDS011;218;51.902;9.542;2023-05-10T00:58:03;4.55;;;4.15;;
462;SDS011;218;51.902;9.542;2023-05-10T01:00:30;4.73;;;4.43;;
462;SDS011;218;51.902;9.542;2023-05-10T01:02:59;4.97;;;4.57;;
462;SDS011;218;51.902;9.542;2023-05-10T01:05:27;4.23;;;3.90;;
462;SDS011;218;51.902;9.542;2023-05-10T01:07:54;4.70;;;4.30;;
462;SDS011;218;51.902;9.542;2023-05-10T01:10:21;4.80;;;4.30;;
462;SDS011;218;51.902;9.542;2023-05-10T01:12:48;4.20;;;3.90;;
462;SDS011;218;51.902;9.542;2023-05-10T01:15:15;4.38;;;4.05;;
462;SDS011;218;51.902;9.542;2023-05-10T01:17:44;4.70;;;4.40;;
462;SDS011;218;51.902;9.542;2023-05-10T01:20:12;4.97;;;4.57;;
462;SDS011;218;51.902;9.542;2023-05-10T01:22:49;4.73;;;4.33;;
462;SDS011;218;51.902;9.542;2023-05-10T01:28:46;4.43;;;4.13;;
462;SDS011;218;51.902;9.542;2023-05-10T01:32:07;5.10;;;4.70;;
462;SDS011;218;51.902;9.542;2023-05-10T01:34:54;4.70;;;3.90;;
462;SDS011;218;51.902;9.542;2023-05-10T01:37:25;5.20;;;4.67;;
462;SDS011;218;51.902;9.542;2023-05-10T01:40:00;5.60;;;4.20;;
462;SDS011;218;51.902;9.542;2023-05-10T01:42:36;4.77;;;4.47;;
462;SDS011;218;51.902;9.542;2023-05-10T01:45:07;4.50;;;4.20;;
462;SDS011;218;51.902;9.542;2023-05-10T01:48:02;5.80;;;5.30;;
462;SDS011;218;51.902;9.542;2023-05-10T01:50:31;4.60;;;4.30;;
462;SDS011;218;51.902;9.542;2023-05-10T01:53:00;4.28;;;3.88;;
462;SDS011;218;51.902;9.542;2023-05-10T01:55:29;4.60;;;4.20;;
462;SDS011;218;51.902;9.542;2023-05-10T01:57:58;4.18;;;3.78;;
462;SDS011;218;51.902;9.542;2023-05-10T02:00:28;4.37;;;4.07;;
462;SDS011;218;51.902;9.542;2023-05-10T02:02:58;4.63;;;4.33;;
462;SDS011;218;51.902;9.542;2023-05-10T02:05:30;5.73;;;5.13;;
462;SDS011;218;51.902;9.542;2023-05-10T02:07:59;4.67;;;4.37;;
462;SDS011;218;51.902;9.542;2023-05-10T02:10:27;4.53;;;4.13;;
462;SDS011;218;51.902;9.542;2023-05-10T02:12:55;4.60;;;4.37;;
462;SDS011;218;51.902;9.542;2023-05-10T02:15:25;3.90;;;3.70;;
462;SDS011;218;51.902;9.542;2023-05-10T02:17:54;3.90;;;3.70;;
462;SDS011;218;51.902;9.542;2023-05-10T02:20:24;4.80;;;4.40;;
462;SDS011;218;51.902;9.542;2023-05-10T02:22:52;4.33;;;4.03;;
462;SDS011;218;51.902;9.542;2023-05-10T02:25:19;5.50;;;5.10;;
462;SDS011;218;51.902;9.542;2023-05-10T02:27:51;4.90;;;4.40;;
462;SDS011;218;51.902;9.542;2023-05-10T02:30:21;5.50;;;5.17;;
462;SDS011;218;51.902;9.542;2023-05-10T02:32:49;5.07;;;4.77;;
462;SDS011;218;51.902;9.542;2023-05-10T02:35:17;4.87;;;4.43;;
462;SDS011;218;51.902;9.542;2023-05-10T02:37:46;5.00;;;4.60;;
462;SDS011;218;51.902;9.542;2023-05-10T02:40:13;5.50;;;5.00;;
462;SDS011;218;51.902;9.542;2023-05-10T02:42:42;5.73;;;5.37;;
462;SDS011;218;51.902;9.542;2023-05-10T02:45:11;5.30;;;4.90;;
462;SDS011;218;51.902;9.542;2023-05-10T02:47:39;5.37;;;4.90;;
462;SDS011;218;51.902;9.542;2023-05-10T02:50:06;5.33;;;4.93;;
462;SDS011;218;51.902;9.542;2023-05-10T02:52:39;4.93;;;4.53;;
462;SDS011;218;51.902;9.542;2023-05-10T02:55:09;5.77;;;5.27;;
462;SDS011;218;51.902;9.542;2023-05-10T02:57:41;4.83;;;4.53;;
462;SDS011;218;51.902;9.542;2023-05-10T03:00:10;5.37;;;4.87;;
462;SDS011;218;51.902;9.542;2023-05-10T03:02:37;6.07;;;5.37;;
462;SDS011;218;51.902;9.542;2023-05-10T03:05:05;5.43;;;4.97;;
462;SDS011;218;51.902;9.542;2023-05-10T03:07:32;6.97;;;6.47;;
462;SDS011;218;51.902;9.542;2023-05-10T03:09:59;5.70;;;5.40;;
462;SDS011;218;51.902;9.542;2023-05-10T03:12:30;4.80;;;4.50;;
462;SDS011;218;51.902;9.542;2023-05-10T03:15:00;5.67;;;5.27;;
462;SDS011;218;51.902;9.542;2023-05-10T03:17:32;5.37;;;4.97;;
462;SDS011;218;51.902;9.542;2023-05-10T03:20:03;6.00;;;5.50;;
462;SDS011;218;51.902;9.542;2023-05-10T03:22:36;5.00;;;4.50;;
462;SDS011;218;51.902;9.542;2023-05-10T03:25:04;5.50;;;5.10;;
462;SDS011;218;51.902;9.542;2023-05-10T03:27:35;5.73;;;5.20;;
462;SDS011;218;51.902;9.542;2023-05-10T03:30:05;5.00;;;4.70;;
462;SDS011;218;51.902;9.542;2023-05-10T03:32:36;5.70;;;5.20;;
462;SDS011;218;51.902;9.542;2023-05-10T03:35:06;6.57;;;5.97;;
462;SDS011;218;51.902;9.542;2023-05-10T03:37:33;5.47;;;5.17;;
462;SDS011;218;51.902;9.542;2023-05-10T03:40:00;5.10;;;4.80;;
462;SDS011;218;51.902;9.542;2023-05-10T03:42:27;5.67;;;5.27;;
462;SDS011;218;51.902;9.542;2023-05-10T03:44:56;5.67;;;5.27;;
462;SDS011;218;51.902;9.542;2023-05-10T03:47:23;5.73;;;5.33;;
462;SDS011;218;51.902;9.542;2023-05-10T03:49:50;5.10;;;4.70;;
462;SDS011;218;51.902;9.542;2023-05-10T03:52:18;5.75;;;5.25;;
462;SDS011;218;51.902;9.542;2023-05-10T03:54:44;6.23;;;5.70;;
462;SDS011;218;51.902;9.542;2023-05-10T03:57:11;5.93;;;5.53;;
462;SDS011;218;51.902;9.542;2023-05-10T03:59:38;5.20;;;4.80;;
462;SDS011;218;51.902;9.542;2023-05-10T04:02:06;6.67;;;5.37;;
462;SDS011;218;51.902;9.542;2023-05-10T04:04:33;5.30;;;4.90;;
462;SDS011;218;51.902;9.542;2023-05-10T04:07:00;6.80;;;6.27;;
462;SDS011;218;51.902;9.542;2023-05-10T04:09:27;5.60;;;5.20;;
462;SDS011;218;51.902;9.542;2023-05-10T04:11:54;6.80;;;5.72;;
462;SDS011;218;51.902;9.542;2023-05-10T04:14:21;5.63;;;5.23;;
462;SDS011;218;51.902;9.542;2023-05-10T04:16:48;6.23;;;5.73;;
462;SDS011;218;51.902;9.542;2023-05-10T04:19:16;5.75;;;5.32;;
462;SDS011;218;51.902;9.542;2023-05-10T04:21:43;7.77;;;7.20;;
462;SDS011;218;51.902;9.542;2023-05-10T04:24:10;6.28;;;5.78;;
462;SDS011;218;51.902;9.542;2023-05-10T04:26:37;6.17;;;5.77;;
462;SDS011;218;51.902;9.542;2023-05-10T04:29:04;6.37;;;5.83;;
462;SDS011;218;51.902;9.542;2023-05-10T04:31:31;6.37;;;5.77;;
462;SDS011;218;51.902;9.542;2023-05-10T04:33:59;7.57;;;6.87;;
462;SDS011;218;51.902;9.542;2023-05-10T04:36:27;7.10;;;6.50;;
462;SDS011;218;51.902;9.542;2023-05-10T04:38:54;6.05;;;5.45;;
462;SDS011;218;51.902;9.542;2023-05-10T04:41:22;6.93;;;6.32;;
462;SDS011;218;51.902;9.542;2023-05-10T04:43:49;6.95;;;6.47;;
462;SDS011;218;51.902;9.542;2023-05-10T04:46:16;6.63;;;6.03;;
462;SDS011;218;51.902;9.542;2023-05-10T04:48:43;6.40;;;5.90;;
462;SDS011;218;51.902;9.542;2023-05-10T04:51:11;6.30;;;5.80;;
462;SDS011;218;51.902;9.542;2023-05-10T04:53:39;6.50;;;6.00;;
462;SDS011;218;51.902;9.542;2023-05-10T04:56:06;6.13;;;5.63;;
462;SDS011;218;51.902;9.542;2023-05-10T04:58:33;6.70;;;6.20;;
462;SDS011;218;51.902;9.542;2023-05-10T05:01:04;5.80;;;5.40;;
462;SDS011;218;51.902;9.542;2023-05-10T05:03:32;6.00;;;5.50;;
462;SDS011;218;51.902;9.542;2023-05-10T05:06:00;6.40;;;5.90;;
462;SDS011;218;51.902;9.542;2023-05-10T05:08:27;7.10;;;6.57;;
462;SDS011;218;51.902;9.542;2023-05-10T05:10:55;5.90;;;5.40;;
462;SDS011;218;51.902;9.542;2023-05-10T05:13:22;5.70;;;5.30;;
462;SDS011;218;51.902;9.542;2023-05-10T05:15:49;5.47;;;4.97;;
462;SDS011;218;51.902;9.542;2023-05-10T05:18:16;7.10;;;6.60;;
462;SDS011;218;51.902;9.542;2023-05-10T05:20:43;6.33;;;5.73;;
462;SDS011;218;51.902;9.542;2023-05-10T05:23:10;5.50;;;5.13;;
462;SDS011;218;51.902;9.542;2023-05-10T05:25:37;5.65;;;5.25;;
462;SDS011;218;51.902;9.542;2023-05-10T05:28:06;6.50;;;6.00;;
462;SDS011;218;51.902;9.542;2023-05-10T05:30:33;6.03;;;5.63;;
462;SDS011;218;51.902;9.542;2023-05-10T05:33:00;6.13;;;5.73;;
462;SDS011;218;51.902;9.542;2023-05-10T05:35:27;5.90;;;5.40;;
462;SDS011;218;51.902;9.542;2023-05-10T05:37:54;5.33;;;4.93;;
462;SDS011;218;51.902;9.542;2023-05-10T05:40:21;7.30;;;6.60;;
462;SDS011;218;51.902;9.542;2023-05-10T05:42:48;6.60;;;6.00;;
462;SDS011;218;51.902;9.542;2023-05-10T05:45:17;7.57;;;6.83;;
462;SDS011;218;51.902;9.542;2023-05-10T05:47:44;7.90;;;7.30;;
462;SDS011;218;51.902;9.542;2023-05-10T05:50:12;7.20;;;6.70;;
462;SDS011;218;51.902;9.542;2023-05-10T05:52:39;8.63;;;8.03;;
462;SDS011;218;51.902;9.542;2023-05-10T05:55:06;9.25;;;8.40;;
462;SDS011;218;51.902;9.542;2023-05-10T05:57:33;7.47;;;6.97;;
462;SDS011;218;51.902;9.542;2023-05-10T06:00:00;8.02;;;7.28;;
462;SDS011;218;51.902;9.542;2023-05-10T06:02:29;8.27;;;7.77;;
462;SDS011;218;51.902;9.542;2023-05-10T06:04:56;7.30;;;6.70;;
462;SDS011;218;51.902;9.542;2023-05-10T06:07:23;7.40;;;6.90;;
462;SDS011;218;51.902;9.542;2023-05-10T06:09:50;6.80;;;6.30;;
462;SDS011;218;51.902;9.542;2023-05-10T06:12:17;6.77;;;6.23;;
462;SDS011;218;51.902;9.542;2023-05-10T06:14:45;7.28;;;6.50;;
462;SDS011;218;51.902;9.542;2023-05-10T06:17:12;7.07;;;6.53;;
462;SDS011;218;51.902;9.542;2023-05-10T06:19:40;6.63;;;6.23;;
462;SDS011;218;51.902;9.542;2023-05-10T06:22:07;6.13;;;5.73;;
462;SDS011;218;51.902;9.542;2023-05-10T06:24:34;6.17;;;5.70;;
462;SDS011;218;51.902;9.542;2023-05-10T06:27:01;6.50;;;6.10;;
462;SDS011;218;51.902;9.542;2023-05-10T06:29:29;7.57;;;7.07;;
462;SDS011;218;51.902;9.542;2023-05-10T06:31:56;6.35;;;5.85;;
462;SDS011;218;51.902;9.542;2023-05-10T06:34:23;5.33;;;5.03;;
462;SDS011;218;51.902;9.542;2023-05-10T06:36:52;5.00;;;4.60;;
462;SDS011;218;51.902;9.542;2023-05-10T06:39:19;5.40;;;5.00;;
462;SDS011;218;51.902;9.542;2023-05-10T06:41:46;5.40;;;5.00;;
462;SDS011;218;51.902;9.542;2023-05-10T06:44:13;4.10;;;3.80;;
462;SDS011;218;51.902;9.542;2023-05-10T06:46:40;3.83;;;3.60;;
462;SDS011;218;51.902;9.542;2023-05-10T06:49:07;3.70;;;3.50;;
462;SDS011;218;51.902;9.542;2023-05-10T06:51:34;3.27;;;3.07;;
462;SDS011;218;51.902;9.542;2023-05-10T06:54:02;3.60;;;3.40;;
462;SDS011;218;51.902;9.542;2023-05-10T06:56:29;3.17;;;3.07;;
462;SDS011;218;51.902;9.542;2023-05-10T06:58:56;2.93;;;2.83;;
462;SDS011;218;51.902;9.542;2023-05-10T07:01:23;2.90;;;2.70;;
462;SDS011;218;51.902;9.542;2023-05-10T07:03:50;2.87;;;2.73;;
462;SDS011;218;51.902;9.542;2023-05-10T07:06:17;2.60;;;2.50;;
462;SDS011;218;51.902;9.542;2023-05-10T07:08:44;2.93;;;2.83;;
462;SDS011;218;51.902;9.542;2023-05-10T07:11:13;2.50;;;2.40;;
462;SDS011;218;51.902;9.542;2023-05-10T07:13:39;2.60;;;2.50;;
462;SDS011;218;51.902;9.542;2023-05-10T07:16:09;2.37;;;2.27;;
462;SDS011;218;51.902;9.542;2023-05-10T07:18:36;2.20;;;2.10;;
462;SDS011;218;51.902;9.542;2023-05-10T07:21:03;2.20;;;2.10;;
462;SDS011;218;51.902;9.542;2023-05-10T07:23:30;2.37;;;2.27;;
462;SDS011;218;51.902;9.542;2023-05-10T07:25:58;1.80;;;1.70;;
462;SDS011;218;51.902;9.542;2023-05-10T07:28:26;2.30;;;2.00;;
462;SDS011;218;51.902;9.542;2023-05-10T07:30:53;2.10;;;2.00;;
462;SDS011;218;51.902;9.542;2023-05-10T07:33:20;2.20;;;2.10;;
462;SDS011;218;51.902;9.542;2023-05-10T07:35:47;1.90;;;1.80;;
462;SDS011;218;51.902;9.542;2023-05-10T07:38:16;1.47;;;1.40;;
462;SDS011;218;51.902;9.542;2023-05-10T07:40:43;1.50;;;1.43;;
462;SDS011;218;51.902;9.542;2023-05-10T07:43:10;1.77;;;1.67;;
462;SDS011;218;51.902;9.542;2023-05-10T07:45:39;2.63;;;2.43;;
462;SDS011;218;51.902;9.542;2023-05-10T07:48:06;1.47;;;1.47;;
462;SDS011;218;51.902;9.542;2023-05-10T07:50:33;1.90;;;1.80;;
462;SDS011;218;51.902;9.542;2023-05-10T07:53:00;1.70;;;1.60;;
462;SDS011;218;51.902;9.542;2023-05-10T07:55:26;1.80;;;1.80;;
462;SDS011;218;51.902;9.542;2023-05-10T07:57:54;1.70;;;1.60;;
462;SDS011;218;51.902;9.542;2023-05-10T08:00:21;1.20;;;1.10;;
462;SDS011;218;51.902;9.542;2023-05-10T08:02:49;1.40;;;1.40;;
462;SDS011;218;51.902;9.542;2023-05-10T08:05:16;2.20;;;1.50;;
462;SDS011;218;51.902;9.542;2023-05-10T08:07:43;1.60;;;1.57;;
462;SDS011;218;51.902;9.542;2023-05-10T08:10:11;1.57;;;1.50;;
462;SDS011;218;51.902;9.542;2023-05-10T08:12:38;1.30;;;1.30;;
462;SDS011;218;51.902;9.542;2023-05-10T08:15:05;1.77;;;1.30;;
462;SDS011;218;51.902;9.542;2023-05-10T08:17:33;1.60;;;1.50;;
462;SDS011;218;51.902;9.542;2023-05-10T08:20:01;1.90;;;1.80;;
462;SDS011;218;51.902;9.542;2023-05-10T08:22:28;1.40;;;1.40;;
462;SDS011;218;51.902;9.542;2023-05-10T08:24:55;1.37;;;1.37;;
462;SDS011;218;51.902;9.542;2023-05-10T08:27:22;1.90;;;1.80;;
462;SDS011;218;51.902;9.542;2023-05-10T08:29:49;2.60;;;2.13;;
462;SDS011;218;51.902;9.542;2023-05-10T08:32:18;2.30;;;2.10;;
462;SDS011;218;51.902;9.542;2023-05-10T08:34:45;2.13;;;2.03;;
462;SDS011;218;51.902;9.542;2023-05-10T08:37:13;2.00;;;1.87;;
462;SDS011;218;51.902;9.542;2023-05-10T08:39:41;1.87;;;1.73;;
462;SDS011;218;51.902;9.542;2023-05-10T08:42:08;3.80;;;1.60;;
462;SDS011;218;51.902;9.542;2023-05-10T08:44:35;1.63;;;1.63;;
462;SDS011;218;51.902;9.542;2023-05-10T08:47:04;2.63;;;1.90;;
462;SDS011;218;51.902;9.542;2023-05-10T08:49:32;2.20;;;2.10;;
462;SDS011;218;51.902;9.542;2023-05-10T08:52:02;1.87;;;1.77;;
462;SDS011;218;51.902;9.542;2023-05-10T08:54:32;1.90;;;1.77;;
462;SDS011;218;51.902;9.542;2023-05-10T08:57:00;1.87;;;1.77;;
462;SDS011;218;51.902;9.542;2023-05-10T08:59:27;2.20;;;2.10;;
462;SDS011;218;51.902;9.542;2023-05-10T09:01:55;1.90;;;1.80;;
462;SDS011;218;51.902;9.542;2023-05-10T09:04:24;3.80;;;3.50;;
462;SDS011;218;51.902;9.542;2023-05-10T09:06:51;3.40;;;3.20;;
462;SDS011;218;51.902;9.542;2023-05-10T09:09:18;3.33;;;3.13;;
462;SDS011;218;51.902;9.542;2023-05-10T09:11:47;2.60;;;2.50;;
462;SDS011;218;51.902;9.542;2023-05-10T09:14:14;1.97;;;1.87;;
462;SDS011;218;51.902;9.542;2023-05-10T09:16:42;1.50;;;1.50;;
462;SDS011;218;51.902;9.542;2023-05-10T09:19:09;1.90;;;1.80;;
462;SDS011;218;51.902;9.542;2023-05-10T09:21:36;1.90;;;1.70;;
462;SDS011;218;51.902;9.542;2023-05-10T09:24:04;2.17;;;2.07;;
462;SDS011;218;51.902;9.542;2023-05-10T09:26:32;2.00;;;1.90;;
462;SDS011;218;51.902;9.542;2023-05-10T09:29:03;1.70;;;1.70;;
462;SDS011;218;51.902;9.542;2023-05-10T09:31:44;2.77;;;2.57;;
462;SDS011;218;51.902;9.542;2023-05-10T09:34:15;2.10;;;2.00;;
462;SDS011;218;51.902;9.542;2023-05-10T09:36:52;2.53;;;2.33;;
462;SDS011;218;51.902;9.542;2023-05-10T09:39:20;2.30;;;2.20;;
462;SDS011;218;51.902;9.542;2023-05-10T09:41:47;3.03;;;2.40;;
462;SDS011;218;51.902;9.542;2023-05-10T09:44:17;2.90;;;2.03;;
462;SDS011;218;51.902;9.542;2023-05-10T09:46:49;2.97;;;2.27;;
462;SDS011;218;51.902;9.542;2023-05-10T09:49:20;2.17;;;2.07;;
462;SDS011;218;51.902;9.542;2023-05-10T09:51:47;6.40;;;2.33;;
462;SDS011;218;51.902;9.542;2023-05-10T09:54:28;3.30;;;2.80;;
462;SDS011;218;51.902;9.542;2023-05-10T09:56:55;3.80;;;3.50;;
462;SDS011;218;51.902;9.542;2023-05-10T09:59:24;3.57;;;3.23;;
462;SDS011;218;51.902;9.542;2023-05-10T10:01:52;4.17;;;3.87;;
462;SDS011;218;51.902;9.542;2023-05-10T10:04:21;3.33;;;2.93;;
462;SDS011;218;51.902;9.542;2023-05-10T10:06:58;2.70;;;2.50;;
462;SDS011;218;51.902;9.542;2023-05-10T10:09:25;2.50;;;2.20;;
462;SDS011;218;51.902;9.542;2023-05-10T10:11:53;2.20;;;2.10;;
462;SDS011;218;51.902;9.542;2023-05-10T10:14:21;2.23;;;2.00;;
462;SDS011;218;51.902;9.542;2023-05-10T10:16:50;2.70;;;2.10;;
462;SDS011;218;51.902;9.542;2023-05-10T10:19:17;2.00;;;1.90;;
462;SDS011;218;51.902;9.542;2023-05-10T10:21:45;2.00;;;1.90;;
462;SDS011;218;51.902;9.542;2023-05-10T10:24:12;2.37;;;2.17;;
462;SDS011;218;51.902;9.542;2023-05-10T10:26:39;2.77;;;2.57;;
462;SDS011;218;51.902;9.542;2023-05-10T10:29:10;2.27;;;1.93;;
462;SDS011;218;51.902;9.542;2023-05-10T10:31:47;3.00;;;2.23;;
462;SDS011;218;51.902;9.542;2023-05-10T10:34:22;2.83;;;2.57;;
462;SDS011;218;51.902;9.542;2023-05-10T10:36:53;3.93;;;2.80;;
462;SDS011;218;51.902;9.542;2023-05-10T10:39:21;3.10;;;2.50;;
462;SDS011;218;51.902;9.542;2023-05-10T10:41:50;2.87;;;2.67;;
462;SDS011;218;51.902;9.542;2023-05-10T10:44:34;2.83;;;2.63;;
462;SDS011;218;51.902;9.542;2023-05-10T10:47:04;3.43;;;2.80;;
462;SDS011;218;51.902;9.542;2023-05-10T10:49:38;3.93;;;2.63;;
462;SDS011;218;51.902;9.542;2023-05-10T10:52:22;3.33;;;3.10;;
462;SDS011;218;51.902;9.542;2023-05-10T10:54:54;3.43;;;3.23;;
462;SDS011;218;51.902;9.542;2023-05-10T10:57:25;3.90;;;3.40;;
462;SDS011;218;51.902;9.542;2023-05-10T10:59:54;3.53;;;3.20;;
462;SDS011;218;51.902;9.542;2023-05-10T11:02:54;3.47;;;3.17;;
462;SDS011;218;51.902;9.542;2023-05-10T11:08:13;6.07;;;4.50;;
462;SDS011;218;51.902;9.542;2023-05-10T11:10:50;3.90;;;3.60;;
462;SDS011;218;51.902;9.542;2023-05-10T11:13:26;5.07;;;4.67;;
462;SDS011;218;51.902;9.542;2023-05-10T11:15:55;5.03;;;4.73;;
462;SDS011;218;51.902;9.542;2023-05-10T11:18:24;4.33;;;4.03;;
462;SDS011;218;51.902;9.542;2023-05-10T11:20:55;5.57;;;4.70;;
462;SDS011;218;51.902;9.542;2023-05-10T11:23:23;5.27;;;4.77;;
462;SDS011;218;51.902;9.542;2023-05-10T11:25:55;4.77;;;4.20;;
462;SDS011;218;51.902;9.542;2023-05-10T11:28:22;3.67;;;3.40;;
462;SDS011;218;51.902;9.542;2023-05-10T11:30:49;4.20;;;3.90;;
462;SDS011;218;51.902;9.542;2023-05-10T11:33:17;3.53;;;3.33;;
462;SDS011;218;51.902;9.542;2023-05-10T11:35:45;3.37;;;3.17;;
462;SDS011;218;51.902;9.542;2023-05-10T11:38:14;4.97;;;3.50;;
462;SDS011;218;51.902;9.542;2023-05-10T11:40:41;3.70;;;3.40;;
462;SDS011;218;51.902;9.542;2023-05-10T11:43:08;5.00;;;3.17;;
462;SDS011;218;51.902;9.542;2023-05-10T11:45:36;3.60;;;3.40;;
462;SDS011;218;51.902;9.542;2023-05-10T11:48:04;3.70;;;3.40;;
462;SDS011;218;51.902;9.542;2023-05-10T11:50:31;7.20;;;5.83;;
462;SDS011;218;51.902;9.542;2023-05-10T11:52:58;5.50;;;5.00;;
462;SDS011;218;51.902;9.542;2023-05-10T11:55:26;4.97;;;4.57;;
462;SDS011;218;51.902;9.542;2023-05-10T11:57:55;5.80;;;5.20;;
462;SDS011;218;51.902;9.542;2023-05-10T12:00:27;5.90;;;5.30;;
462;SDS011;218;51.902;9.542;2023-05-10T12:02:55;5.93;;;5.23;;
462;SDS011;218;51.902;9.542;2023-05-10T12:05:22;4.80;;;4.13;;
462;SDS011;218;51.902;9.542;2023-05-10T12:07:50;7.00;;;4.60;;
462;SDS011;218;51.902;9.542;2023-05-10T12:10:17;5.50;;;5.00;;
462;SDS011;218;51.902;9.542;2023-05-10T12:12:52;5.40;;;5.00;;
462;SDS011;218;51.902;9.542;2023-05-10T12:15:19;5.03;;;4.53;;
462;SDS011;218;51.902;9.542;2023-05-10T12:17:47;5.30;;;4.90;;
462;SDS011;218;51.902;9.542;2023-05-10T12:20:19;6.63;;;4.20;;
462;SDS011;218;51.902;9.542;2023-05-10T12:22:49;5.63;;;5.10;;
462;SDS011;218;51.902;9.542;2023-05-10T12:25:17;5.20;;;4.80;;
462;SDS011;218;51.902;9.542;2023-05-10T12:27:49;6.53;;;5.20;;
462;SDS011;218;51.902;9.542;2023-05-10T12:30:21;4.80;;;4.40;;
462;SDS011;218;51.902;9.542;2023-05-10T12:32:48;5.10;;;4.60;;
462;SDS011;218;51.902;9.542;2023-05-10T12:35:15;6.60;;;4.97;;
462;SDS011;218;51.902;9.542;2023-05-10T12:37:45;4.00;;;3.80;;
462;SDS011;218;51.902;9.542;2023-05-10T12:40:12;5.17;;;4.70;;
462;SDS011;218;51.902;9.542;2023-05-10T12:42:39;7.00;;;5.47;;
462;SDS011;218;51.902;9.542;2023-05-10T12:45:08;5.67;;;5.27;;
462;SDS011;218;51.902;9.542;2023-05-10T12:47:35;4.93;;;4.53;;
462;SDS011;218;51.902;9.542;2023-05-10T12:50:06;5.87;;;5.33;;
462;SDS011;218;51.902;9.542;2023-05-10T12:52:33;5.30;;;4.93;;
462;SDS011;218;51.902;9.542;2023-05-10T12:55:00;5.30;;;4.57;;
462;SDS011;218;51.902;9.542;2023-05-10T12:57:28;5.57;;;5.07;;
462;SDS011;218;51.902;9.542;2023-05-10T12:59:55;5.67;;;5.30;;
462;SDS011;218;51.902;9.542;2023-05-10T13:02:23;6.67;;;5.30;;
462;SDS011;218;51.902;9.542;2023-05-10T13:04:50;6.33;;;5.53;;
462;SDS011;218;51.902;9.542;2023-05-10T13:07:17;5.10;;;4.70;;
462;SDS011;218;51.902;9.542;2023-05-10T13:09:44;5.83;;;5.33;;
462;SDS011;218;51.902;9.542;2023-05-10T13:12:11;5.83;;;5.43;;
462;SDS011;218;51.902;9.542;2023-05-10T13:14:38;5.77;;;5.27;;
462;SDS011;218;51.902;9.542;2023-05-10T13:17:06;5.87;;;5.47;;
462;SDS011;218;51.902;9.542;2023-05-10T13:19:34;6.17;;;5.57;;
462;SDS011;218;51.902;9.542;2023-05-10T13:22:02;6.47;;;5.93;;
462;SDS011;218;51.902;9.542;2023-05-10T13:24:29;6.33;;;4.90;;
462;SDS011;218;51.902;9.542;2023-05-10T13:26:56;5.90;;;5.40;;
462;SDS011;218;51.902;9.542;2023-05-10T13:29:23;6.20;;;5.80;;
462;SDS011;218;51.902;9.542;2023-05-10T13:31:50;6.17;;;5.77;;
462;SDS011;218;51.902;9.542;2023-05-10T13:34:16;7.20;;;6.60;;
462;SDS011;218;51.902;9.542;2023-05-10T13:36:46;7.40;;;6.70;;
462;SDS011;218;51.902;9.542;2023-05-10T13:39:14;5.67;;;5.27;;
462;SDS011;218;51.902;9.542;2023-05-10T13:41:41;6.67;;;6.17;;
462;SDS011;218;51.902;9.542;2023-05-10T13:44:07;7.07;;;6.37;;
462;SDS011;218;51.902;9.542;2023-05-10T13:46:34;6.87;;;6.00;;
462;SDS011;218;51.902;9.542;2023-05-10T13:49:02;7.20;;;6.60;;
462;SDS011;218;51.902;9.542;2023-05-10T13:51:29;7.33;;;6.70;;
462;SDS011;218;51.902;9.542;2023-05-10T13:53:58;6.67;;;6.17;;
462;SDS011;218;51.902;9.542;2023-05-10T13:56:25;6.27;;;5.80;;
462;SDS011;218;51.902;9.542;2023-05-10T13:58:52;7.10;;;6.50;;
462;SDS011;218;51.902;9.542;2023-05-10T14:01:19;5.57;;;5.13;;
462;SDS011;218;51.902;9.542;2023-05-10T14:03:46;6.50;;;5.97;;
462;SDS011;218;51.902;9.542;2023-05-10T14:06:13;6.70;;;6.10;;
462;SDS011;218;51.902;9.542;2023-05-10T14:08:40;6.67;;;6.17;;
462;SDS011;218;51.902;9.542;2023-05-10T14:11:08;5.50;;;5.13;;
462;SDS011;218;51.902;9.542;2023-05-10T14:13:35;5.90;;;5.50;;
462;SDS011;218;51.902;9.542;2023-05-10T14:16:02;6.13;;;5.67;;
462;SDS011;218;51.902;9.542;2023-05-10T14:18:29;6.03;;;5.53;;
462;SDS011;218;51.902;9.542;2023-05-10T14:20:56;8.50;;;7.30;;
462;SDS011;218;51.902;9.542;2023-05-10T14:23:23;8.77;;;7.37;;
462;SDS011;218;51.902;9.542;2023-05-10T14:25:50;6.23;;;5.73;;
462;SDS011;218;51.902;9.542;2023-05-10T14:28:19;5.33;;;4.83;;
462;SDS011;218;51.902;9.542;2023-05-10T14:30:47;5.17;;;4.67;;
462;SDS011;218;51.902;9.542;2023-05-10T14:33:14;8.13;;;7.30;;
462;SDS011;218;51.902;9.542;2023-05-10T14:35:42;5.57;;;5.07;;
462;SDS011;218;51.902;9.542;2023-05-10T14:38:10;7.60;;;5.67;;
462;SDS011;218;51.902;9.542;2023-05-10T14:40:37;11.07;;;6.30;;
462;SDS011;218;51.902;9.542;2023-05-10T14:43:04;8.50;;;7.60;;
462;SDS011;218;51.902;9.542;2023-05-10T14:45:32;7.20;;;6.50;;
462;SDS011;218;51.902;9.542;2023-05-10T14:47:59;6.23;;;5.63;;
462;SDS011;218;51.902;9.542;2023-05-10T14:50:29;6.67;;;6.07;;
462;SDS011;218;51.902;9.542;2023-05-10T14:52:56;7.03;;;6.43;;
462;SDS011;218;51.902;9.542;2023-05-10T14:55:23;8.93;;;6.63;;
462;SDS011;218;51.902;9.542;2023-05-10T14:57:50;6.07;;;5.17;;
462;SDS011;218;51.902;9.542;2023-05-10T15:00:17;5.90;;;5.13;;
462;SDS011;218;51.902;9.542;2023-05-10T15:02:46;6.43;;;5.80;;
462;SDS011;218;51.902;9.542;2023-05-10T15:05:13;5.70;;;5.20;;
462;SDS011;218;51.902;9.542;2023-05-10T15:07:40;4.97;;;4.57;;
462;SDS011;218;51.902;9.542;2023-05-10T15:10:09;5.73;;;5.13;;
462;SDS011;218;51.902;9.542;2023-05-10T15:12:36;5.67;;;4.70;;
462;SDS011;218;51.902;9.542;2023-05-10T15:15:04;4.50;;;4.00;;
462;SDS011;218;51.902;9.542;2023-05-10T15:17:31;4.37;;;4.03;;
462;SDS011;218;51.902;9.542;2023-05-10T15:20:00;4.70;;;4.20;;
462;SDS011;218;51.902;9.542;2023-05-10T15:22:28;6.10;;;4.33;;
462;SDS011;218;51.902;9.542;2023-05-10T15:24:56;5.03;;;4.73;;
462;SDS011;218;51.902;9.542;2023-05-10T15:27:23;4.97;;;4.57;;
462;SDS011;218;51.902;9.542;2023-05-10T15:29:50;4.67;;;4.40;;
462;SDS011;218;51.902;9.542;2023-05-10T15:32:17;4.53;;;4.20;;
462;SDS011;218;51.902;9.542;2023-05-10T15:34:44;5.20;;;4.63;;
462;SDS011;218;51.902;9.542;2023-05-10T15:37:12;4.30;;;3.90;;
462;SDS011;218;51.902;9.542;2023-05-10T15:39:39;4.20;;;3.90;;
462;SDS011;218;51.902;9.542;2023-05-10T15:42:06;4.30;;;4.00;;
462;SDS011;218;51.902;9.542;2023-05-10T15:44:33;4.27;;;3.87;;
462;SDS011;218;51.902;9.542;2023-05-10T15:47:03;4.90;;;4.40;;
462;SDS011;218;51.902;9.542;2023-05-10T15:49:30;4.10;;;3.80;;
462;SDS011;218;51.902;9.542;2023-05-10T15:51:57;4.90;;;4.60;;
462;SDS011;218;51.902;9.542;2023-05-10T15:54:25;5.03;;;4.63;;
462;SDS011;218;51.902;9.542;2023-05-10T15:56:52;6.00;;;5.23;;
462;SDS011;218;51.902;9.542;2023-05-10T15:59:19;5.87;;;5.37;;